Terminal Aerodrome Forecast
Issued by NWS

Home | Current Version | Previous Version | Text Only | Print | Product List | Glossary On
Versions: 1 2 3 4 5 6 7 8 9 10 11 12 13 14 15
000
FTUS46 KSGX 281729
TAFONT
TAF
KONT 281729Z 2818/2924 VRB05KT P6SM SKC
     FM282100 25011G18KT P6SM SKC
     FM290200 25008KT P6SM SKC
     FM290500 VRB04KT P6SM SKC
     FM292100 25012G18KT P6SM SKC=

USA.gov is the U.S. government's official web portal to all federal, state and local government web resources and services.